createdAt,value
2023-04-05T00:02:55.010Z,4.2
2023-04-05T00:18:04.958Z,4
2023-04-05T00:33:15.707Z,3.8
2023-04-05T00:48:24.935Z,3.6
2023-04-05T01:03:34.203Z,3.4
2023-04-05T01:18:44.808Z,3.2
2023-04-05T01:33:54.019Z,3
2023-04-05T01:49:03.648Z,3
2023-04-05T02:04:13.259Z,2.8
2023-04-05T02:19:22.489Z,2.7
2023-04-05T02:34:32.049Z,2.7
2023-04-05T02:49:41.761Z,2.6
2023-04-05T03:04:50.347Z,2.5
2023-04-05T03:20:00.774Z,2.3
2023-04-05T03:35:10.380Z,2.2
2023-04-05T03:50:19.919Z,2.1
2023-04-05T04:05:28.934Z,2.1
2023-04-05T04:20:37.851Z,2.1
2023-04-05T04:35:47.620Z,2.1
2023-04-05T04:50:57.617Z,2
2023-04-05T05:06:06.395Z,1.8
2023-04-05T05:21:15.849Z,1.8
2023-04-05T05:36:25.654Z,1.8
2023-04-05T05:51:35.216Z,1.9
2023-04-05T06:06:45.634Z,2
2023-04-05T06:21:55.171Z,2.1
2023-04-05T06:37:06.142Z,2.3
2023-04-05T06:52:15.522Z,2.5
2023-04-05T07:07:24.635Z,2.6
2023-04-05T07:22:34.111Z,2.9
2023-04-05T07:37:44.085Z,3.2
2023-04-05T07:52:53.474Z,3.5
2023-04-05T08:08:03.327Z,3.8
2023-04-05T08:23:13.901Z,4.2
2023-04-05T08:38:22.754Z,4.5
2023-04-05T08:53:32.675Z,4.8
2023-04-05T09:08:45.699Z,5.2
2023-04-05T09:23:55.936Z,5.5
2023-04-05T09:39:05.434Z,5.8
2023-04-05T09:54:15.186Z,6.1
2023-04-05T10:09:25.146Z,6.4
2023-04-05T10:24:34.861Z,6.4
2023-04-05T10:39:45.600Z,6.7
2023-04-05T10:54:55.682Z,6.6
2023-04-05T11:10:05.255Z,6.6
2023-04-05T11:25:15.597Z,6.9
2023-04-05T11:40:25.372Z,7
2023-04-05T11:55:34.814Z,7
2023-04-05T12:10:44.461Z,7.1
2023-04-05T12:25:54.053Z,7.4
2023-04-05T12:41:04.784Z,8.9
2023-04-05T12:56:14.971Z,9.4
2023-04-05T13:11:25.303Z,10.2
2023-04-05T13:26:35.586Z,9.9
2023-04-05T13:41:46.590Z,9.4
2023-04-05T13:56:56.976Z,9.8
2023-04-05T14:12:06.679Z,10.3
2023-04-05T14:27:18.872Z,11
2023-04-05T14:42:37.456Z,10.4
2023-04-05T14:58:00.154Z,10.2
2023-04-05T15:13:10.189Z,10.9
2023-04-05T15:28:20.870Z,13.4
2023-04-05T15:43:30.670Z,13.7
2023-04-05T15:58:41.575Z,16.2
2023-04-05T16:13:48.872Z,14.4
2023-04-05T16:28:59.119Z,16.2
2023-04-05T16:44:10.989Z,16.9
2023-04-05T16:59:17.449Z,12.8
2023-04-05T17:14:25.811Z,11.2
2023-04-05T17:29:34.405Z,10.4
2023-04-05T17:44:46.970Z,9.5
2023-04-05T17:59:56.260Z,8.9
2023-04-05T18:15:05.036Z,8.5
2023-04-05T18:30:14.790Z,8.1
2023-04-05T18:45:24.138Z,7.9
2023-04-05T19:00:33.426Z,7.6
2023-04-05T19:15:42.479Z,7.4
2023-04-05T19:30:52.122Z,7.2
2023-04-05T19:46:01.654Z,6.9
2023-04-05T20:01:11.634Z,6.7
2023-04-05T20:16:20.896Z,6.5
2023-04-05T20:31:30.778Z,6.3
2023-04-05T20:46:40.736Z,6.1
2023-04-05T21:01:50.342Z,5.9
2023-04-05T21:17:00.469Z,5.7
2023-04-05T21:32:09.855Z,5.4
2023-04-05T21:47:19.188Z,5.2
2023-04-05T22:02:28.749Z,5
2023-04-05T22:17:38.296Z,4.8
2023-04-05T22:32:49.039Z,4.8
2023-04-05T22:47:58.937Z,4.7
2023-04-05T23:03:08.767Z,4.6
2023-04-05T23:18:19.055Z,4.5
2023-04-05T23:33:29.471Z,4.4
2023-04-05T23:48:39.525Z,4.4
